createdAt,value
2019-04-22T00:01:56.982Z,14.70
2019-04-22T00:04:33.805Z,14.80
2019-04-22T00:07:12.525Z,14.80
2019-04-22T00:09:45.683Z,14.70
2019-04-22T00:12:15.499Z,14.70
2019-04-22T00:14:35.107Z,14.70
2019-04-22T00:17:19.985Z,14.70
2019-04-22T00:19:45.641Z,14.70
2019-04-22T00:22:15.386Z,14.70
2019-04-22T00:24:39.021Z,14.70
2019-04-22T00:27:08.359Z,14.60
2019-04-22T00:29:50.164Z,14.60
2019-04-22T00:32:05.627Z,14.60
2019-04-22T00:34:35.936Z,14.60
2019-04-22T00:37:10.948Z,14.60
2019-04-22T00:39:44.683Z,14.50
2019-04-22T00:42:09.957Z,14.50
2019-04-22T00:44:43.265Z,14.50
2019-04-22T00:47:14.568Z,14.50
2019-04-22T00:52:16.645Z,14.40
2019-04-22T00:54:30.990Z,14.40
2019-04-22T00:57:02.579Z,14.40
2019-04-22T00:59:29.682Z,14.30
2019-04-22T01:02:03.765Z,14.30
2019-04-22T01:04:34.598Z,14.30
2019-04-22T01:06:51.462Z,14.20
2019-04-22T01:09:26.779Z,14.20
2019-04-22T01:11:56.938Z,14.20
2019-04-22T01:14:21.969Z,14.20
2019-04-22T01:16:55.883Z,14.20
2019-04-22T01:19:23.625Z,14.10
2019-04-22T01:21:43.652Z,14.10
2019-04-22T01:24:17.284Z,14.10
2019-04-22T01:26:40.473Z,14.10
2019-04-22T01:29:10.019Z,14.00
2019-04-22T01:31:28.713Z,14.00
2019-04-22T01:34:08.339Z,13.90
2019-04-22T01:36:45.702Z,13.90
2019-04-22T01:39:16.786Z,13.80
2019-04-22T01:46:44.790Z,13.80
2019-04-22T01:49:14.693Z,13.80
2019-04-22T01:51:52.478Z,13.70
2019-04-22T01:54:15.173Z,13.70
2019-04-22T01:56:40.847Z,13.70
2019-04-22T01:58:59.374Z,13.70
2019-04-22T02:01:43.689Z,13.80
2019-04-22T02:04:13.909Z,13.70
2019-04-22T02:06:35.070Z,13.70
2019-04-22T02:09:11.701Z,13.60
2019-04-22T02:11:39.104Z,13.50
2019-04-22T02:14:04.046Z,13.50
2019-04-22T02:16:34.373Z,13.50
2019-04-22T02:19:07.255Z,13.40
2019-04-22T02:21:34.286Z,13.50
2019-04-22T02:24:02.649Z,13.50
2019-04-22T02:26:31.558Z,13.50
2019-04-22T02:28:53.695Z,13.40
2019-04-22T02:36:32.543Z,13.30
2019-04-22T03:01:39.741Z,13.00
2019-04-22T03:04:01.585Z,13.00
2019-04-22T03:06:33.789Z,12.90
2019-04-22T03:11:18.915Z,12.90
2019-04-22T03:16:33.186Z,12.90
2019-04-22T03:19:05.898Z,12.80
2019-04-22T03:21:15.980Z,12.80
2019-04-22T03:28:47.614Z,12.70
2019-04-22T03:32:17.394Z,12.70
2019-04-22T03:35:09.980Z,12.60
2019-04-22T03:37:11.060Z,12.70
2019-04-22T03:39:38.129Z,12.70
2019-04-22T03:47:02.357Z,12.60
2019-04-22T03:49:34.416Z,12.60
2019-04-22T03:51:56.704Z,12.60
2019-04-22T03:54:29.217Z,12.60
2019-04-22T03:57:22.051Z,12.60
2019-04-22T03:59:28.436Z,12.50
2019-04-22T04:04:19.048Z,12.50
2019-04-22T04:06:50.568Z,12.40
2019-04-22T04:09:14.398Z,12.40
2019-04-22T04:11:58.025Z,12.40
2019-04-22T04:14:10.115Z,12.40
2019-04-22T04:16:39.058Z,12.40
2019-04-22T04:19:13.682Z,12.30
2019-04-22T04:21:33.232Z,12.30
2019-04-22T04:24:39.498Z,12.30
2019-04-22T04:29:21.456Z,12.30
2019-04-22T04:31:32.709Z,12.30
2019-04-22T04:34:03.313Z,12.30
2019-04-22T04:36:28.754Z,12.30
2019-04-22T04:49:00.450Z,12.50
2019-04-22T04:51:26.951Z,12.50
2019-04-22T04:54:15.128Z,12.40
2019-04-22T04:56:22.918Z,12.40
2019-04-22T05:03:49.297Z,12.40
2019-04-22T05:06:16.460Z,12.40
2019-04-22T05:09:02.458Z,12.40
2019-04-22T05:11:16.338Z,12.50
2019-04-22T05:13:55.076Z,12.50
2019-04-22T05:16:25.423Z,12.50
2019-04-22T05:18:37.347Z,12.50
2019-04-22T05:21:14.201Z,12.50
2019-04-22T05:23:37.440Z,12.50
2019-04-22T05:26:05.238Z,12.50
2019-04-22T05:28:42.245Z,12.50
2019-04-22T05:31:01.668Z,12.60
2019-04-22T05:33:32.293Z,12.70
2019-04-22T05:35:53.623Z,12.70
2019-04-22T05:38:30.518Z,12.70
2019-04-22T05:40:49.652Z,12.80
2019-04-22T05:43:22.704Z,12.90
2019-04-22T05:45:52.782Z,12.90
2019-04-22T05:48:18.872Z,13.00
2019-04-22T05:50:47.225Z,13.00
2019-04-22T05:53:13.182Z,13.10
2019-04-22T05:55:48.922Z,13.20
2019-04-22T05:58:15.350Z,13.20
2019-04-22T06:01:12.785Z,13.30
2019-04-22T06:03:20.786Z,13.30
2019-04-22T06:05:47.247Z,13.40
2019-04-22T06:08:11.617Z,13.40
2019-04-22T06:10:48.717Z,13.50
2019-04-22T06:13:06.881Z,13.50
2019-04-22T06:15:37.503Z,13.60
2019-04-22T06:18:17.650Z,13.70
2019-04-22T06:20:54.004Z,13.80
2019-04-22T06:23:19.038Z,13.90
2019-04-22T06:25:57.398Z,14.00
2019-04-22T06:28:25.870Z,14.10
2019-04-22T06:30:53.406Z,14.20
2019-04-22T06:33:14.859Z,14.30
2019-04-22T06:35:45.756Z,14.40
2019-04-22T06:40:40.328Z,14.60
2019-04-22T06:43:10.436Z,14.70
2019-04-22T06:45:33.751Z,14.90
2019-04-22T06:48:13.143Z,15.00
2019-04-22T06:50:41.769Z,15.10
2019-04-22T06:53:06.775Z,15.20
2019-04-22T06:55:38.931Z,15.40
2019-04-22T06:58:04.583Z,15.50
2019-04-22T07:00:32.318Z,15.70
2019-04-22T07:05:32.832Z,15.90
2019-04-22T07:08:05.625Z,16.40
2019-04-22T07:10:38.731Z,18.00
2019-04-22T07:12:56.598Z,18.10
2019-04-22T07:15:42.367Z,18.20
2019-04-22T07:17:55.174Z,18.20
2019-04-22T07:20:25.557Z,18.40
2019-04-22T07:22:59.959Z,20.70
2019-04-22T07:25:23.552Z,23.30
2019-04-22T07:27:52.125Z,22.60
2019-04-22T07:30:22.247Z,21.80
2019-04-22T07:35:22.587Z,23.60
2019-04-22T07:37:48.334Z,25.30
2019-04-22T07:40:18.322Z,24.60
2019-04-22T07:42:41.804Z,24.20
2019-04-22T07:45:26.643Z,23.90
2019-04-22T07:47:46.574Z,23.70
2019-04-22T07:50:22.980Z,25.30
2019-04-22T07:52:38.789Z,26.30
2019-04-22T07:55:18.358Z,28.30
2019-04-22T07:57:41.333Z,27.70
2019-04-22T08:00:10.203Z,26.40
2019-04-22T08:02:39.138Z,26.00
2019-04-22T08:05:18.833Z,26.40
2019-04-22T08:10:08.494Z,26.30
2019-04-22T08:12:34.926Z,26.70
2019-04-22T08:15:01.941Z,27.00
2019-04-22T08:22:23.929Z,27.60
2019-04-22T08:24:53.993Z,29.70
2019-04-22T08:27:24.608Z,31.80
2019-04-22T08:29:59.790Z,32.00
2019-04-22T08:32:25.803Z,33.40
2019-04-22T08:34:47.588Z,34.40
2019-04-22T08:37:42.311Z,35.00
2019-04-22T08:39:55.098Z,35.30
2019-04-22T08:42:27.099Z,34.30
2019-04-22T08:47:19.134Z,32.80
2019-04-22T08:49:50.776Z,31.10
2019-04-22T08:52:16.399Z,30.60
2019-04-22T08:54:45.738Z,31.00
2019-04-22T08:57:11.021Z,30.60
2019-04-22T08:59:37.182Z,29.60
2019-04-22T09:02:18.102Z,28.40
2019-04-22T09:04:35.811Z,27.40
2019-04-22T09:09:38.717Z,25.90
2019-04-22T09:12:08.032Z,25.40
2019-04-22T09:14:42.193Z,24.90
2019-04-22T09:17:13.648Z,24.50
2019-04-22T09:19:30.007Z,24.20
2019-04-22T09:22:04.932Z,23.90
2019-04-22T09:24:35.583Z,23.80
2019-04-22T09:27:04.341Z,23.60
2019-04-22T09:29:36.777Z,23.40
2019-04-22T09:32:08.034Z,23.30
2019-04-22T09:34:27.770Z,23.20
2019-04-22T09:37:07.946Z,23.20
2019-04-22T09:39:41.280Z,23.00
2019-04-22T09:41:59.600Z,23.00
2019-04-22T09:44:34.615Z,23.00
2019-04-22T09:46:52.257Z,23.00
2019-04-22T09:49:29.260Z,23.00
2019-04-22T09:51:52.105Z,23.00
2019-04-22T09:54:29.624Z,23.00
2019-04-22T09:56:50.720Z,23.00
2019-04-22T09:59:21.129Z,22.90
2019-04-22T10:01:59.656Z,22.80
2019-04-22T10:04:14.281Z,22.90
2019-04-22T10:06:45.529Z,22.80
2019-04-22T10:09:32.831Z,22.80
2019-04-22T10:11:47.034Z,22.80
2019-04-22T10:14:16.942Z,22.80
2019-04-22T10:16:45.576Z,22.90
2019-04-22T10:19:12.080Z,22.90
2019-04-22T10:21:44.712Z,22.90
2019-04-22T10:24:09.107Z,22.90
2019-04-22T10:26:39.152Z,22.90
2019-04-22T10:31:38.171Z,22.90
2019-04-22T10:33:53.546Z,22.90
2019-04-22T10:36:07.937Z,22.90
2019-04-22T10:38:35.049Z,23.00
2019-04-22T10:41:02.826Z,22.90
2019-04-22T10:43:29.830Z,22.90
2019-04-22T10:45:57.841Z,22.90
2019-04-22T10:48:26.194Z,23.00
2019-04-22T10:50:54.681Z,23.00
2019-04-22T10:53:21.905Z,23.00
2019-04-22T10:55:49.867Z,23.10
2019-04-22T10:58:18.041Z,23.00
2019-04-22T11:00:45.354Z,23.10
2019-04-22T11:03:14.061Z,23.00
2019-04-22T11:05:42.063Z,23.10
2019-04-22T11:08:19.192Z,23.10
2019-04-22T11:10:56.457Z,23.20
2019-04-22T11:13:10.892Z,23.20
2019-04-22T11:15:40.393Z,23.30
2019-04-22T11:18:09.387Z,23.20
2019-04-22T11:20:37.769Z,23.20
2019-04-22T11:23:05.045Z,23.20
2019-04-22T11:25:32.155Z,23.20
2019-04-22T11:28:00.001Z,23.20
2019-04-22T11:30:28.245Z,23.30
2019-04-22T11:32:56.244Z,23.30
2019-04-22T11:35:23.722Z,23.30
2019-04-22T11:37:50.909Z,23.30
2019-04-22T11:40:30.025Z,23.30
2019-04-22T11:42:50.183Z,23.30
2019-04-22T11:45:19.259Z,23.30
2019-04-22T11:47:47.603Z,23.40
2019-04-22T11:50:15.740Z,23.40
2019-04-22T11:52:43.072Z,23.40
2019-04-22T11:55:10.922Z,23.40
2019-04-22T11:57:39.185Z,23.40
2019-04-22T12:00:09.186Z,23.30
2019-04-22T12:02:36.637Z,23.40
2019-04-22T12:05:06.059Z,23.40
2019-04-22T12:07:35.272Z,23.40
2019-04-22T12:10:15.145Z,23.50
2019-04-22T12:12:32.017Z,23.50
2019-04-22T12:15:00.652Z,23.60
2019-04-22T12:17:27.861Z,23.60
2019-04-22T12:19:55.786Z,23.60
2019-04-22T12:22:23.121Z,23.70
2019-04-22T12:24:50.404Z,23.70
2019-04-22T12:27:19.084Z,23.80
2019-04-22T12:29:47.056Z,23.80
2019-04-22T12:32:15.643Z,23.90
2019-04-22T12:34:43.690Z,23.90
2019-04-22T12:37:17.436Z,23.90
2019-04-22T12:39:40.965Z,23.90
2019-04-22T12:42:08.982Z,23.90
2019-04-22T12:44:39.054Z,23.90
2019-04-22T12:47:06.112Z,24.00
2019-04-22T12:49:36.976Z,24.00
2019-04-22T12:52:03.117Z,24.10
2019-04-22T12:54:31.141Z,24.10
2019-04-22T12:56:59.622Z,24.20
2019-04-22T12:59:27.947Z,24.20
2019-04-22T13:01:55.282Z,24.20
2019-04-22T13:04:23.665Z,24.30
2019-04-22T13:06:51.354Z,24.40
2019-04-22T13:09:19.515Z,24.40
2019-04-22T13:11:47.042Z,24.40
2019-04-22T13:14:14.978Z,24.40
2019-04-22T13:16:42.942Z,24.40
2019-04-22T13:19:12.916Z,24.40
2019-04-22T13:21:40.577Z,24.30
2019-04-22T13:24:08.934Z,24.30
2019-04-22T13:26:36.220Z,24.20
2019-04-22T13:29:03.353Z,24.10
2019-04-22T13:31:30.874Z,24.00
2019-04-22T13:34:01.443Z,24.10
2019-04-22T13:36:29.605Z,24.00
2019-04-22T13:38:56.412Z,23.90
2019-04-22T13:41:33.021Z,23.90
2019-04-22T13:43:53.767Z,23.90
2019-04-22T13:46:21.962Z,24.00
2019-04-22T13:49:17.887Z,24.10
2019-04-22T13:51:52.089Z,24.20
2019-04-22T13:54:47.101Z,24.40
2019-04-22T13:56:40.166Z,24.50
2019-04-22T13:58:55.349Z,24.60
2019-04-22T14:01:16.446Z,24.70
2019-04-22T14:03:48.950Z,24.80
2019-04-22T14:06:16.472Z,24.80
2019-04-22T14:08:45.101Z,24.90
2019-04-22T14:11:24.707Z,24.90
2019-04-22T14:13:41.897Z,24.90
2019-04-22T14:16:10.964Z,24.90
2019-04-22T14:18:39.058Z,25.00
2019-04-22T14:21:06.967Z,25.10
2019-04-22T14:23:34.833Z,25.00
2019-04-22T14:26:01.917Z,25.00
2019-04-22T14:28:30.738Z,25.00
2019-04-22T14:30:57.800Z,25.00
2019-04-22T14:33:24.777Z,25.00
2019-04-22T14:35:52.042Z,25.10
2019-04-22T14:38:19.039Z,25.10
2019-04-22T14:40:48.062Z,25.10
2019-04-22T14:43:46.283Z,25.20
2019-04-22T14:46:20.604Z,25.20
2019-04-22T14:48:42.100Z,25.20
2019-04-22T14:51:05.908Z,25.30
2019-04-22T14:53:30.985Z,25.30
2019-04-22T14:55:40.347Z,25.40
2019-04-22T14:58:08.908Z,25.30
2019-04-22T15:00:36.157Z,25.30
2019-04-22T15:03:03.868Z,25.30
2019-04-22T15:05:31.888Z,25.20
2019-04-22T15:07:59.221Z,25.20
2019-04-22T15:10:26.425Z,25.10
2019-04-22T15:12:56.893Z,25.20
2019-04-22T15:15:24.411Z,25.10
2019-04-22T15:17:54.340Z,25.20
2019-04-22T15:20:23.742Z,25.20
2019-04-22T15:22:50.806Z,25.20
2019-04-22T15:25:18.711Z,25.20
2019-04-22T15:27:45.994Z,25.20
2019-04-22T15:30:13.413Z,25.20
2019-04-22T15:32:41.243Z,25.20
2019-04-22T15:35:09.154Z,25.10
2019-04-22T15:37:37.275Z,25.10
2019-04-22T15:40:04.778Z,25.00
2019-04-22T15:42:37.291Z,25.00
2019-04-22T15:45:02.422Z,24.90
2019-04-22T15:47:30.978Z,24.80
2019-04-22T15:49:58.432Z,24.70
2019-04-22T15:52:31.974Z,24.70
2019-04-22T15:54:54.335Z,24.70
2019-04-22T15:57:22.529Z,24.70
2019-04-22T16:00:06.729Z,24.70
2019-04-22T16:02:19.425Z,24.70
2019-04-22T16:04:46.667Z,24.70
2019-04-22T16:07:14.826Z,24.70
2019-04-22T16:09:43.428Z,24.70
2019-04-22T16:12:19.065Z,24.60
2019-04-22T16:14:46.930Z,24.60
2019-04-22T16:17:08.707Z,24.50
2019-04-22T16:19:37.048Z,24.40
2019-04-22T16:22:10.559Z,24.40
2019-04-22T16:24:45.767Z,24.40
2019-04-22T16:27:18.655Z,24.40
2019-04-22T16:29:45.705Z,24.40
2019-04-22T16:32:13.640Z,24.40
2019-04-22T16:34:42.255Z,24.30
2019-04-22T16:37:10.467Z,24.30
2019-04-22T16:39:38.593Z,24.20
2019-04-22T16:42:06.802Z,24.10
2019-04-22T16:44:34.518Z,24.20
2019-04-22T16:47:01.722Z,24.10
2019-04-22T16:49:29.806Z,24.10
2019-04-22T16:51:58.259Z,24.00
2019-04-22T16:54:26.346Z,24.00
2019-04-22T16:56:55.359Z,23.90
2019-04-22T16:59:22.653Z,23.90
2019-04-22T17:01:52.717Z,23.80
2019-04-22T17:04:28.358Z,23.70
2019-04-22T17:06:55.543Z,23.70
2019-04-22T17:09:23.869Z,23.60
2019-04-22T17:11:52.178Z,23.50
2019-04-22T17:14:29.086Z,23.50
2019-04-22T17:16:48.603Z,23.40
2019-04-22T17:19:19.793Z,23.40
2019-04-22T17:21:47.848Z,23.30
2019-04-22T17:24:14.984Z,23.30
2019-04-22T17:26:42.459Z,23.30
2019-04-22T17:29:10.456Z,23.20
2019-04-22T17:31:41.573Z,23.20
2019-04-22T17:34:07.043Z,23.10
2019-04-22T17:36:34.202Z,23.10
2019-04-22T17:39:19.130Z,23.00
2019-04-22T17:41:50.471Z,23.00
2019-04-22T17:44:30.873Z,23.00
2019-04-22T17:46:48.345Z,23.00
2019-04-22T17:49:44.469Z,23.00
2019-04-22T17:52:30.863Z,22.90
2019-04-22T17:54:49.360Z,22.90
2019-04-22T17:57:19.280Z,22.80
2019-04-22T17:59:46.972Z,22.80
2019-04-22T18:02:09.726Z,22.80
2019-04-22T18:04:29.026Z,22.80
2019-04-22T18:07:18.467Z,22.70
2019-04-22T18:10:14.121Z,22.70
2019-04-22T18:12:20.507Z,22.60
2019-04-22T18:15:02.637Z,22.60
2019-04-22T18:17:13.993Z,22.50
2019-04-22T18:19:35.144Z,22.50
2019-04-22T18:22:00.837Z,22.40
2019-04-22T18:24:26.493Z,22.40
2019-04-22T18:27:07.381Z,22.30
2019-04-22T18:29:35.974Z,22.30
2019-04-22T18:31:54.452Z,22.30
2019-04-22T18:34:25.616Z,22.40
2019-04-22T18:36:59.125Z,22.30
2019-04-22T18:39:36.362Z,22.20
2019-04-22T18:42:00.510Z,22.10
2019-04-22T18:44:35.045Z,22.00
2019-04-22T18:46:56.484Z,21.90
2019-04-22T18:49:29.540Z,21.90
2019-04-22T18:51:57.780Z,21.80
2019-04-22T18:54:48.449Z,21.70
2019-04-22T18:57:15.560Z,21.60
2019-04-22T18:59:35.558Z,21.50
2019-04-22T19:02:05.453Z,21.40
2019-04-22T19:04:41.014Z,21.40
2019-04-22T19:07:26.407Z,21.40
2019-04-22T19:09:56.285Z,21.30
2019-04-22T19:12:29.232Z,21.20
2019-04-22T19:14:52.971Z,21.20
2019-04-22T19:17:24.922Z,21.10
2019-04-22T19:19:54.115Z,21.00
2019-04-22T19:22:14.951Z,20.90
2019-04-22T19:24:40.060Z,20.90
2019-04-22T19:27:09.214Z,20.80
2019-04-22T19:29:46.753Z,20.70
2019-04-22T19:32:09.859Z,20.70
2019-04-22T19:34:37.948Z,20.60
2019-04-22T19:37:11.822Z,20.60
2019-04-22T19:39:34.213Z,20.50
2019-04-22T19:42:15.074Z,20.50
2019-04-22T19:44:37.686Z,20.40
2019-04-22T19:47:22.601Z,20.30
2019-04-22T19:49:38.387Z,20.30
2019-04-22T19:52:22.718Z,20.30
2019-04-22T19:54:33.849Z,20.20
2019-04-22T19:56:50.691Z,20.20
2019-04-22T19:59:23.871Z,20.10
2019-04-22T20:02:07.355Z,20.10
2019-04-22T20:04:52.574Z,20.00
2019-04-22T20:07:14.129Z,20.00
2019-04-22T20:09:49.459Z,19.90
2019-04-22T20:12:11.692Z,19.90
2019-04-22T20:14:46.370Z,19.90
2019-04-22T20:17:11.454Z,19.80
2019-04-22T20:19:46.256Z,19.80
2019-04-22T20:22:07.723Z,19.80
2019-04-22T20:24:25.864Z,19.80
2019-04-22T20:27:12.322Z,19.70
2019-04-22T20:29:42.182Z,19.70
2019-04-22T20:32:05.324Z,19.60
2019-04-22T20:34:39.487Z,19.60
2019-04-22T20:37:10.470Z,19.60
2019-04-22T20:39:39.646Z,19.50
2019-04-22T20:42:18.049Z,19.50
2019-04-22T20:44:35.237Z,19.50
2019-04-22T20:46:56.110Z,19.40
2019-04-22T20:49:30.865Z,19.40
2019-04-22T20:52:06.398Z,19.30
2019-04-22T20:54:32.102Z,19.30
2019-04-22T20:56:55.028Z,19.30
2019-04-22T20:59:33.298Z,19.30
2019-04-22T21:02:03.709Z,19.20
2019-04-22T21:04:26.143Z,19.20
2019-04-22T21:07:01.909Z,19.10
2019-04-22T21:09:35.539Z,19.00
2019-04-22T21:12:02.103Z,19.00
2019-04-22T21:14:29.783Z,19.00
2019-04-22T21:17:08.078Z,18.90
2019-04-22T21:19:40.371Z,18.90
2019-04-22T21:22:07.971Z,18.90
2019-04-22T21:24:29.094Z,18.90
2019-04-22T21:27:11.940Z,18.80
2019-04-22T21:29:32.113Z,18.70
2019-04-22T21:32:07.656Z,18.70
2019-04-22T21:34:34.719Z,18.70
2019-04-22T21:37:08.831Z,18.60
2019-04-22T21:39:30.795Z,18.60
2019-04-22T21:42:03.355Z,18.50
2019-04-22T21:44:30.669Z,18.50
2019-04-22T21:47:12.921Z,18.40
2019-04-22T21:49:35.421Z,18.30
2019-04-22T21:52:01.661Z,18.30
2019-04-22T21:54:34.045Z,18.30
2019-04-22T21:57:19.215Z,18.30
2019-04-22T21:59:44.891Z,18.30
2019-04-22T22:02:25.590Z,18.30
2019-04-22T22:04:44.573Z,18.20
2019-04-22T22:07:05.288Z,18.10
2019-04-22T22:09:47.536Z,18.10
2019-04-22T22:12:10.302Z,18.10
2019-04-22T22:14:46.037Z,18.00
2019-04-22T22:17:13.957Z,18.00
2019-04-22T22:19:45.554Z,18.00
2019-04-22T22:22:30.117Z,17.90
2019-04-22T22:24:46.680Z,17.90
2019-04-22T22:27:12.617Z,17.90
2019-04-22T22:29:49.312Z,17.90
2019-04-22T22:32:11.814Z,17.80
2019-04-22T22:34:35.005Z,17.80
2019-04-22T22:36:55.945Z,17.80
2019-04-22T22:39:27.564Z,17.80
2019-04-22T22:41:44.024Z,17.70
2019-04-22T22:44:21.119Z,17.70
2019-04-22T22:46:58.992Z,17.60
2019-04-22T22:49:35.401Z,17.60
2019-04-22T22:52:16.728Z,17.60
2019-04-22T22:54:33.013Z,17.60
2019-04-22T22:57:08.549Z,17.50
2019-04-22T22:59:27.524Z,17.50
2019-04-22T23:01:54.380Z,17.50
2019-04-22T23:04:29.586Z,17.40
2019-04-22T23:06:56.702Z,17.40
2019-04-22T23:09:27.311Z,17.40
2019-04-22T23:12:06.035Z,17.40
2019-04-22T23:14:29.756Z,17.30
2019-04-22T23:16:45.674Z,17.30
2019-04-22T23:19:06.468Z,17.30
2019-04-22T23:21:39.123Z,17.30
2019-04-22T23:24:21.521Z,17.20
2019-04-22T23:27:03.105Z,17.20
2019-04-22T23:29:32.394Z,17.20
2019-04-22T23:32:05.551Z,17.20
2019-04-22T23:34:39.000Z,17.20
2019-04-22T23:37:06.974Z,17.20
2019-04-22T23:39:52.223Z,17.10
2019-04-22T23:42:15.919Z,17.10
2019-04-22T23:44:36.512Z,17.00
2019-04-22T23:46:59.916Z,17.00
2019-04-22T23:49:30.249Z,17.00
2019-04-22T23:52:10.163Z,16.90
2019-04-22T23:54:39.280Z,16.90
2019-04-22T23:57:02.020Z,16.90
2019-04-22T23:59:41.405Z,16.90
